sensor_id;sensor_type;location;lat;lon;timestamp;P1;durP1;ratioP1;P2;durP2;ratioP2
12687;SDS011;6408;59.388;17.798;2023-04-12T00:00:31;12.50;;;6.57;;
12687;SDS011;6408;59.388;17.798;2023-04-12T00:02:59;6.10;;;5.50;;
12687;SDS011;6408;59.388;17.798;2023-04-12T00:05:31;8.67;;;5.67;;
12687;SDS011;6408;59.388;17.798;2023-04-12T00:07:58;8.03;;;5.87;;
12687;SDS011;6408;59.388;17.798;2023-04-12T00:10:29;7.07;;;5.90;;
12687;SDS011;6408;59.388;17.798;2023-04-12T00:12:57;9.23;;;5.87;;
12687;SDS011;6408;59.388;17.798;2023-04-12T00:15:24;10.10;;;6.00;;
12687;SDS011;6408;59.388;17.798;2023-04-12T00:17:51;8.00;;;5.80;;
12687;SDS011;6408;59.388;17.798;2023-04-12T00:20:19;7.97;;;5.43;;
12687;SDS011;6408;59.388;17.798;2023-04-12T00:22:49;9.13;;;5.97;;
12687;SDS011;6408;59.388;17.798;2023-04-12T00:25:18;9.40;;;6.27;;
12687;SDS011;6408;59.388;17.798;2023-04-12T00:27:45;8.00;;;6.50;;
12687;SDS011;6408;59.388;17.798;2023-04-12T00:30:13;8.00;;;6.53;;
12687;SDS011;6408;59.388;17.798;2023-04-12T00:32:40;9.23;;;6.03;;
12687;SDS011;6408;59.388;17.798;2023-04-12T00:35:08;8.53;;;5.73;;
12687;SDS011;6408;59.388;17.798;2023-04-12T00:37:35;8.03;;;5.87;;
12687;SDS011;6408;59.388;17.798;2023-04-12T00:40:07;9.50;;;6.10;;
12687;SDS011;6408;59.388;17.798;2023-04-12T00:42:35;11.13;;;5.80;;
12687;SDS011;6408;59.388;17.798;2023-04-12T00:45:03;7.23;;;6.17;;
12687;SDS011;6408;59.388;17.798;2023-04-12T00:47:33;6.73;;;5.57;;
12687;SDS011;6408;59.388;17.798;2023-04-12T00:50:01;9.67;;;6.23;;
12687;SDS011;6408;59.388;17.798;2023-04-12T00:52:31;8.90;;;6.33;;
12687;SDS011;6408;59.388;17.798;2023-04-12T00:55:00;7.30;;;5.80;;
12687;SDS011;6408;59.388;17.798;2023-04-12T00:57:32;8.73;;;5.83;;
12687;SDS011;6408;59.388;17.798;2023-04-12T01:00:00;8.13;;;5.87;;
12687;SDS011;6408;59.388;17.798;2023-04-12T01:02:29;7.53;;;5.50;;
12687;SDS011;6408;59.388;17.798;2023-04-12T01:04:57;7.53;;;5.90;;
12687;SDS011;6408;59.388;17.798;2023-04-12T01:07:28;7.57;;;5.30;;
12687;SDS011;6408;59.388;17.798;2023-04-12T01:10:06;9.37;;;5.97;;
12687;SDS011;6408;59.388;17.798;2023-04-12T01:12:43;9.70;;;5.90;;
12687;SDS011;6408;59.388;17.798;2023-04-12T01:15:17;10.53;;;5.83;;
12687;SDS011;6408;59.388;17.798;2023-04-12T01:17:57;6.00;;;5.40;;
12687;SDS011;6408;59.388;17.798;2023-04-12T01:20:30;8.93;;;6.57;;
12687;SDS011;6408;59.388;17.798;2023-04-12T01:23:13;9.57;;;6.37;;
12687;SDS011;6408;59.388;17.798;2023-04-12T01:25:55;10.20;;;5.93;;
12687;SDS011;6408;59.388;17.798;2023-04-12T01:28:33;9.13;;;6.13;;
12687;SDS011;6408;59.388;17.798;2023-04-12T01:31:04;7.90;;;5.80;;
12687;SDS011;6408;59.388;17.798;2023-04-12T01:33:36;8.50;;;5.20;;
12687;SDS011;6408;59.388;17.798;2023-04-12T01:36:08;8.07;;;6.30;;
12687;SDS011;6408;59.388;17.798;2023-04-12T01:38:38;7.47;;;5.60;;
12687;SDS011;6408;59.388;17.798;2023-04-12T01:41:07;7.50;;;5.40;;
12687;SDS011;6408;59.388;17.798;2023-04-12T01:43:41;7.63;;;5.27;;
12687;SDS011;6408;59.388;17.798;2023-04-12T01:46:09;8.10;;;5.80;;
12687;SDS011;6408;59.388;17.798;2023-04-12T01:48:37;9.53;;;6.57;;
12687;SDS011;6408;59.388;17.798;2023-04-12T01:51:05;9.50;;;6.47;;
12687;SDS011;6408;59.388;17.798;2023-04-12T01:53:38;8.03;;;6.13;;
12687;SDS011;6408;59.388;17.798;2023-04-12T01:56:14;8.50;;;6.53;;
12687;SDS011;6408;59.388;17.798;2023-04-12T01:58:45;7.53;;;6.40;;
12687;SDS011;6408;59.388;17.798;2023-04-12T02:01:14;9.03;;;6.63;;
12687;SDS011;6408;59.388;17.798;2023-04-12T02:03:43;8.03;;;6.50;;
12687;SDS011;6408;59.388;17.798;2023-04-12T02:06:13;7.03;;;6.20;;
12687;SDS011;6408;59.388;17.798;2023-04-12T02:08:44;9.77;;;6.67;;
12687;SDS011;6408;59.388;17.798;2023-04-12T02:11:12;8.67;;;6.10;;
12687;SDS011;6408;59.388;17.798;2023-04-12T02:13:40;8.73;;;6.60;;
12687;SDS011;6408;59.388;17.798;2023-04-12T02:16:09;8.70;;;6.70;;
12687;SDS011;6408;59.388;17.798;2023-04-12T02:18:38;10.57;;;6.77;;
12687;SDS011;6408;59.388;17.798;2023-04-12T02:21:06;12.43;;;7.43;;
12687;SDS011;6408;59.388;17.798;2023-04-12T02:23:34;10.83;;;7.40;;
12687;SDS011;6408;59.388;17.798;2023-04-12T02:26:01;9.77;;;7.33;;
12687;SDS011;6408;59.388;17.798;2023-04-12T02:28:29;9.40;;;6.63;;
12687;SDS011;6408;59.388;17.798;2023-04-12T02:30:58;8.80;;;7.07;;
12687;SDS011;6408;59.388;17.798;2023-04-12T02:33:27;9.93;;;6.30;;
12687;SDS011;6408;59.388;17.798;2023-04-12T02:35:55;11.07;;;6.67;;
12687;SDS011;6408;59.388;17.798;2023-04-12T02:38:23;9.43;;;6.50;;
12687;SDS011;6408;59.388;17.798;2023-04-12T02:40:51;7.30;;;6.17;;
12687;SDS011;6408;59.388;17.798;2023-04-12T02:43:18;8.47;;;6.40;;
12687;SDS011;6408;59.388;17.798;2023-04-12T02:45:46;6.83;;;5.60;;
12687;SDS011;6408;59.388;17.798;2023-04-12T02:48:14;8.57;;;6.37;;
12687;SDS011;6408;59.388;17.798;2023-04-12T02:50:43;7.40;;;6.40;;
12687;SDS011;6408;59.388;17.798;2023-04-12T02:53:10;7.93;;;5.77;;
12687;SDS011;6408;59.388;17.798;2023-04-12T02:55:38;9.47;;;6.47;;
12687;SDS011;6408;59.388;17.798;2023-04-12T02:58:05;10.60;;;6.30;;
12687;SDS011;6408;59.388;17.798;2023-04-12T03:00:33;8.47;;;6.40;;
12687;SDS011;6408;59.388;17.798;2023-04-12T03:03:01;7.50;;;5.77;;
12687;SDS011;6408;59.388;17.798;2023-04-12T03:05:28;9.07;;;6.53;;
12687;SDS011;6408;59.388;17.798;2023-04-12T03:07:58;7.83;;;6.53;;
12687;SDS011;6408;59.388;17.798;2023-04-12T03:10:25;7.27;;;6.47;;
12687;SDS011;6408;59.388;17.798;2023-04-12T03:12:53;10.67;;;6.10;;
12687;SDS011;6408;59.388;17.798;2023-04-12T03:15:20;9.90;;;6.90;;
12687;SDS011;6408;59.388;17.798;2023-04-12T03:17:48;11.03;;;7.20;;
12687;SDS011;6408;59.388;17.798;2023-04-12T03:20:15;7.97;;;6.03;;
12687;SDS011;6408;59.388;17.798;2023-04-12T03:22:44;8.87;;;6.77;;
12687;SDS011;6408;59.388;17.798;2023-04-12T03:25:13;11.27;;;6.60;;
12687;SDS011;6408;59.388;17.798;2023-04-12T03:27:42;11.30;;;7.10;;
12687;SDS011;6408;59.388;17.798;2023-04-12T03:30:09;8.33;;;6.90;;
12687;SDS011;6408;59.388;17.798;2023-04-12T03:32:37;10.30;;;7.30;;
12687;SDS011;6408;59.388;17.798;2023-04-12T03:35:06;11.67;;;7.77;;
12687;SDS011;6408;59.388;17.798;2023-04-12T03:37:34;8.70;;;6.83;;
12687;SDS011;6408;59.388;17.798;2023-04-12T03:40:02;9.37;;;6.97;;
12687;SDS011;6408;59.388;17.798;2023-04-12T03:42:31;9.93;;;7.50;;
12687;SDS011;6408;59.388;17.798;2023-04-12T03:44:59;10.80;;;8.07;;
12687;SDS011;6408;59.388;17.798;2023-04-12T03:47:27;11.63;;;8.60;;
12687;SDS011;6408;59.388;17.798;2023-04-12T03:49:54;9.07;;;7.53;;
12687;SDS011;6408;59.388;17.798;2023-04-12T03:52:25;12.40;;;8.57;;
12687;SDS011;6408;59.388;17.798;2023-04-12T03:54:52;11.97;;;8.03;;
12687;SDS011;6408;59.388;17.798;2023-04-12T03:57:20;9.87;;;7.90;;
12687;SDS011;6408;59.388;17.798;2023-04-12T03:59:49;10.23;;;7.90;;
12687;SDS011;6408;59.388;17.798;2023-04-12T04:02:17;11.43;;;7.80;;
12687;SDS011;6408;59.388;17.798;2023-04-12T04:04:45;10.43;;;7.53;;
12687;SDS011;6408;59.388;17.798;2023-04-12T04:07:12;13.30;;;8.30;;
12687;SDS011;6408;59.388;17.798;2023-04-12T04:09:40;13.57;;;9.20;;
12687;SDS011;6408;59.388;17.798;2023-04-12T04:12:07;12.90;;;8.77;;
12687;SDS011;6408;59.388;17.798;2023-04-12T04:14:35;12.63;;;8.97;;
12687;SDS011;6408;59.388;17.798;2023-04-12T04:17:04;10.93;;;8.57;;
12687;SDS011;6408;59.388;17.798;2023-04-12T04:19:31;11.27;;;8.90;;
12687;SDS011;6408;59.388;17.798;2023-04-12T04:21:59;14.10;;;9.40;;
12687;SDS011;6408;59.388;17.798;2023-04-12T04:24:27;11.53;;;8.90;;
12687;SDS011;6408;59.388;17.798;2023-04-12T04:26:54;10.70;;;8.70;;
12687;SDS011;6408;59.388;17.798;2023-04-12T04:29:24;10.37;;;8.63;;
12687;SDS011;6408;59.388;17.798;2023-04-12T04:31:53;10.17;;;8.40;;
12687;SDS011;6408;59.388;17.798;2023-04-12T04:34:23;9.13;;;7.67;;
12687;SDS011;6408;59.388;17.798;2023-04-12T04:36:51;10.80;;;7.93;;
12687;SDS011;6408;59.388;17.798;2023-04-12T04:39:18;13.23;;;9.03;;
12687;SDS011;6408;59.388;17.798;2023-04-12T04:41:46;9.03;;;7.43;;
12687;SDS011;6408;59.388;17.798;2023-04-12T04:44:18;9.93;;;7.43;;
12687;SDS011;6408;59.388;17.798;2023-04-12T04:46:46;12.57;;;7.67;;
12687;SDS011;6408;59.388;17.798;2023-04-12T04:49:15;8.60;;;7.00;;
12687;SDS011;6408;59.388;17.798;2023-04-12T04:51:45;12.67;;;7.37;;
12687;SDS011;6408;59.388;17.798;2023-04-12T04:54:13;9.07;;;7.50;;
12687;SDS011;6408;59.388;17.798;2023-04-12T04:56:40;8.20;;;7.20;;
12687;SDS011;6408;59.388;17.798;2023-04-12T04:59:08;9.63;;;6.93;;
12687;SDS011;6408;59.388;17.798;2023-04-12T05:01:36;7.83;;;6.93;;
12687;SDS011;6408;59.388;17.798;2023-04-12T05:04:05;7.37;;;6.57;;
12687;SDS011;6408;59.388;17.798;2023-04-12T05:06:32;8.23;;;6.70;;
12687;SDS011;6408;59.388;17.798;2023-04-12T05:09:01;9.20;;;6.63;;
12687;SDS011;6408;59.388;17.798;2023-04-12T05:11:29;7.57;;;6.77;;
12687;SDS011;6408;59.388;17.798;2023-04-12T05:13:57;8.37;;;6.40;;
12687;SDS011;6408;59.388;17.798;2023-04-12T05:16:24;7.60;;;6.47;;
12687;SDS011;6408;59.388;17.798;2023-04-12T05:18:52;10.65;;;7.03;;
12687;SDS011;6408;59.388;17.798;2023-04-12T05:21:19;10.20;;;6.60;;
12687;SDS011;6408;59.388;17.798;2023-04-12T05:23:47;7.45;;;6.50;;
12687;SDS011;6408;59.388;17.798;2023-04-12T05:26:17;7.18;;;6.43;;
12687;SDS011;6408;59.388;17.798;2023-04-12T05:28:45;7.80;;;6.55;;
12687;SDS011;6408;59.388;17.798;2023-04-12T05:31:13;8.57;;;6.72;;
12687;SDS011;6408;59.388;17.798;2023-04-12T05:33:41;8.95;;;6.10;;
12687;SDS011;6408;59.388;17.798;2023-04-12T05:36:09;7.97;;;6.82;;
12687;SDS011;6408;59.388;17.798;2023-04-12T05:38:37;8.88;;;6.50;;
12687;SDS011;6408;59.388;17.798;2023-04-12T05:41:08;9.63;;;6.95;;
12687;SDS011;6408;59.388;17.798;2023-04-12T05:43:37;7.90;;;7.03;;
12687;SDS011;6408;59.388;17.798;2023-04-12T05:46:05;8.00;;;6.88;;
12687;SDS011;6408;59.388;17.798;2023-04-12T05:48:33;9.20;;;6.75;;
12687;SDS011;6408;59.388;17.798;2023-04-12T05:51:02;9.00;;;6.38;;
12687;SDS011;6408;59.388;17.798;2023-04-12T05:53:30;8.02;;;6.60;;
12687;SDS011;6408;59.388;17.798;2023-04-12T05:55:58;9.15;;;6.80;;
12687;SDS011;6408;59.388;17.798;2023-04-12T05:58:26;10.55;;;7.38;;
12687;SDS011;6408;59.388;17.798;2023-04-12T06:00:55;7.80;;;6.68;;
12687;SDS011;6408;59.388;17.798;2023-04-12T06:03:23;10.05;;;6.22;;
12687;SDS011;6408;59.388;17.798;2023-04-12T06:05:54;7.63;;;6.68;;
12687;SDS011;6408;59.388;17.798;2023-04-12T06:08:22;10.10;;;6.70;;
12687;SDS011;6408;59.388;17.798;2023-04-12T06:10:49;9.80;;;6.28;;
12687;SDS011;6408;59.388;17.798;2023-04-12T06:13:16;8.25;;;6.55;;
12687;SDS011;6408;59.388;17.798;2023-04-12T06:15:44;9.02;;;7.05;;
12687;SDS011;6408;59.388;17.798;2023-04-12T06:18:13;7.53;;;6.53;;
12687;SDS011;6408;59.388;17.798;2023-04-12T06:20:41;6.72;;;6.03;;
12687;SDS011;6408;59.388;17.798;2023-04-12T06:23:08;9.88;;;6.75;;
12687;SDS011;6408;59.388;17.798;2023-04-12T06:25:36;7.20;;;6.13;;
12687;SDS011;6408;59.388;17.798;2023-04-12T06:28:03;9.75;;;7.53;;
12687;SDS011;6408;59.388;17.798;2023-04-12T06:30:31;8.93;;;6.80;;
12687;SDS011;6408;59.388;17.798;2023-04-12T06:32:58;11.98;;;6.50;;
12687;SDS011;6408;59.388;17.798;2023-04-12T06:35:27;8.50;;;6.93;;
12687;SDS011;6408;59.388;17.798;2023-04-12T06:37:54;10.10;;;5.90;;
12687;SDS011;6408;59.388;17.798;2023-04-12T06:40:22;11.38;;;6.85;;
12687;SDS011;6408;59.388;17.798;2023-04-12T06:42:50;8.00;;;6.55;;
12687;SDS011;6408;59.388;17.798;2023-04-12T06:45:18;8.00;;;6.88;;
12687;SDS011;6408;59.388;17.798;2023-04-12T06:47:45;7.68;;;6.15;;
12687;SDS011;6408;59.388;17.798;2023-04-12T06:50:13;8.45;;;6.40;;
12687;SDS011;6408;59.388;17.798;2023-04-12T06:52:44;8.07;;;6.78;;
12687;SDS011;6408;59.388;17.798;2023-04-12T06:55:12;9.30;;;6.60;;
12687;SDS011;6408;59.388;17.798;2023-04-12T06:57:40;9.32;;;6.75;;
12687;SDS011;6408;59.388;17.798;2023-04-12T07:00:09;9.00;;;6.43;;
12687;SDS011;6408;59.388;17.798;2023-04-12T07:02:37;11.65;;;6.93;;
12687;SDS011;6408;59.388;17.798;2023-04-12T07:05:05;11.93;;;6.65;;
12687;SDS011;6408;59.388;17.798;2023-04-12T07:07:33;9.40;;;5.88;;
12687;SDS011;6408;59.388;17.798;2023-04-12T07:10:02;8.95;;;6.20;;
12687;SDS011;6408;59.388;17.798;2023-04-12T07:12:30;8.02;;;5.75;;
12687;SDS011;6408;59.388;17.798;2023-04-12T07:14:58;11.75;;;6.40;;
12687;SDS011;6408;59.388;17.798;2023-04-12T07:17:25;10.73;;;6.35;;
12687;SDS011;6408;59.388;17.798;2023-04-12T07:19:53;12.95;;;6.60;;
12687;SDS011;6408;59.388;17.798;2023-04-12T07:22:21;8.18;;;5.78;;
12687;SDS011;6408;59.388;17.798;2023-04-12T07:24:49;8.27;;;6.47;;
12687;SDS011;6408;59.388;17.798;2023-04-12T07:27:18;10.40;;;5.93;;
12687;SDS011;6408;59.388;17.798;2023-04-12T07:29:46;9.02;;;6.47;;
12687;SDS011;6408;59.388;17.798;2023-04-12T07:32:13;6.35;;;5.75;;
12687;SDS011;6408;59.388;17.798;2023-04-12T07:34:41;8.80;;;5.97;;
12687;SDS011;6408;59.388;17.798;2023-04-12T07:37:09;8.20;;;5.97;;
12687;SDS011;6408;59.388;17.798;2023-04-12T07:39:37;11.43;;;6.38;;
12687;SDS011;6408;59.388;17.798;2023-04-12T07:42:05;11.95;;;5.63;;
12687;SDS011;6408;59.388;17.798;2023-04-12T07:44:34;9.23;;;6.47;;
12687;SDS011;6408;59.388;17.798;2023-04-12T07:47:02;6.85;;;5.85;;
12687;SDS011;6408;59.388;17.798;2023-04-12T07:49:29;8.38;;;6.57;;
12687;SDS011;6408;59.388;17.798;2023-04-12T07:51:57;8.35;;;6.43;;
12687;SDS011;6408;59.388;17.798;2023-04-12T07:54:26;7.78;;;5.78;;
12687;SDS011;6408;59.388;17.798;2023-04-12T07:56:57;8.10;;;5.75;;
12687;SDS011;6408;59.388;17.798;2023-04-12T07:59:26;8.55;;;6.40;;
12687;SDS011;6408;59.388;17.798;2023-04-12T08:01:56;7.78;;;6.25;;
12687;SDS011;6408;59.388;17.798;2023-04-12T08:04:23;7.50;;;6.32;;
12687;SDS011;6408;59.388;17.798;2023-04-12T08:06:52;6.53;;;5.57;;
12687;SDS011;6408;59.388;17.798;2023-04-12T08:09:19;7.97;;;5.75;;
12687;SDS011;6408;59.388;17.798;2023-04-12T08:11:47;10.40;;;6.25;;
12687;SDS011;6408;59.388;17.798;2023-04-12T08:14:15;6.63;;;5.82;;
12687;SDS011;6408;59.388;17.798;2023-04-12T08:16:42;7.82;;;5.82;;
12687;SDS011;6408;59.388;17.798;2023-04-12T08:19:12;13.55;;;6.38;;
12687;SDS011;6408;59.388;17.798;2023-04-12T08:21:40;10.00;;;6.07;;
12687;SDS011;6408;59.388;17.798;2023-04-12T08:24:08;7.20;;;5.97;;
12687;SDS011;6408;59.388;17.798;2023-04-12T08:26:35;9.15;;;5.57;;
12687;SDS011;6408;59.388;17.798;2023-04-12T08:29:04;7.60;;;6.50;;
12687;SDS011;6408;59.388;17.798;2023-04-12T08:31:31;9.27;;;6.10;;
12687;SDS011;6408;59.388;17.798;2023-04-12T08:33:59;6.53;;;5.68;;
12687;SDS011;6408;59.388;17.798;2023-04-12T08:36:29;7.15;;;5.45;;
12687;SDS011;6408;59.388;17.798;2023-04-12T08:38:57;9.85;;;5.90;;
12687;SDS011;6408;59.388;17.798;2023-04-12T08:41:24;9.20;;;6.15;;
12687;SDS011;6408;59.388;17.798;2023-04-12T08:43:52;10.63;;;6.28;;
12687;SDS011;6408;59.388;17.798;2023-04-12T08:46:20;6.63;;;5.72;;
12687;SDS011;6408;59.388;17.798;2023-04-12T08:48:48;8.38;;;5.93;;
12687;SDS011;6408;59.388;17.798;2023-04-12T08:51:18;9.68;;;5.85;;
12687;SDS011;6408;59.388;17.798;2023-04-12T08:53:48;10.07;;;6.05;;
12687;SDS011;6408;59.388;17.798;2023-04-12T08:56:18;6.70;;;6.00;;
12687;SDS011;6408;59.388;17.798;2023-04-12T08:58:47;8.05;;;6.40;;
12687;SDS011;6408;59.388;17.798;2023-04-12T09:01:18;8.63;;;5.70;;
12687;SDS011;6408;59.388;17.798;2023-04-12T09:03:46;8.35;;;5.95;;
12687;SDS011;6408;59.388;17.798;2023-04-12T09:06:14;10.60;;;5.60;;
12687;SDS011;6408;59.388;17.798;2023-04-12T09:08:53;6.93;;;5.53;;
12687;SDS011;6408;59.388;17.798;2023-04-12T09:11:24;8.25;;;5.85;;
12687;SDS011;6408;59.388;17.798;2023-04-12T09:13:53;7.40;;;5.88;;
12687;SDS011;6408;59.388;17.798;2023-04-12T09:16:34;8.45;;;5.63;;
12687;SDS011;6408;59.388;17.798;2023-04-12T09:19:02;6.28;;;5.22;;
12687;SDS011;6408;59.388;17.798;2023-04-12T09:21:30;7.50;;;5.60;;
12687;SDS011;6408;59.388;17.798;2023-04-12T09:24:04;6.95;;;5.40;;
12687;SDS011;6408;59.388;17.798;2023-04-12T09:26:37;8.40;;;5.35;;
12687;SDS011;6408;59.388;17.798;2023-04-12T09:29:04;7.15;;;5.38;;
12687;SDS011;6408;59.388;17.798;2023-04-12T09:31:53;7.88;;;5.95;;
12687;SDS011;6408;59.388;17.798;2023-04-12T09:34:21;10.35;;;5.70;;
12687;SDS011;6408;59.388;17.798;2023-04-12T09:36:49;6.07;;;5.47;;
12687;SDS011;6408;59.388;17.798;2023-04-12T09:39:19;7.47;;;5.35;;
12687;SDS011;6408;59.388;17.798;2023-04-12T09:41:46;6.78;;;5.60;;
12687;SDS011;6408;59.388;17.798;2023-04-12T09:44:26;8.50;;;5.95;;
12687;SDS011;6408;59.388;17.798;2023-04-12T09:46:55;6.10;;;5.50;;
12687;SDS011;6408;59.388;17.798;2023-04-12T09:52:08;6.35;;;5.57;;
12687;SDS011;6408;59.388;17.798;2023-04-12T09:54:41;6.70;;;4.90;;
12687;SDS011;6408;59.388;17.798;2023-04-12T09:57:09;6.65;;;5.30;;
12687;SDS011;6408;59.388;17.798;2023-04-12T09:59:38;6.55;;;5.07;;
12687;SDS011;6408;59.388;17.798;2023-04-12T10:02:09;6.40;;;5.53;;
12687;SDS011;6408;59.388;17.798;2023-04-12T10:04:40;7.57;;;5.45;;
12687;SDS011;6408;59.388;17.798;2023-04-12T10:07:08;6.38;;;5.20;;
12687;SDS011;6408;59.388;17.798;2023-04-12T10:09:37;6.97;;;5.35;;
12687;SDS011;6408;59.388;17.798;2023-04-12T10:12:07;6.80;;;5.55;;
12687;SDS011;6408;59.388;17.798;2023-04-12T10:14:35;6.28;;;5.53;;
12687;SDS011;6408;59.388;17.798;2023-04-12T10:17:03;7.20;;;5.88;;
12687;SDS011;6408;59.388;17.798;2023-04-12T10:19:31;6.40;;;4.82;;
12687;SDS011;6408;59.388;17.798;2023-04-12T10:21:59;5.82;;;4.75;;
12687;SDS011;6408;59.388;17.798;2023-04-12T10:24:27;6.68;;;5.22;;
12687;SDS011;6408;59.388;17.798;2023-04-12T10:26:58;5.53;;;4.72;;
12687;SDS011;6408;59.388;17.798;2023-04-12T10:29:28;6.07;;;5.43;;
12687;SDS011;6408;59.388;17.798;2023-04-12T10:34:49;6.90;;;5.10;;
12687;SDS011;6408;59.388;17.798;2023-04-12T10:37:17;7.05;;;5.28;;
12687;SDS011;6408;59.388;17.798;2023-04-12T10:39:51;6.65;;;5.00;;
12687;SDS011;6408;59.388;17.798;2023-04-12T10:42:25;6.35;;;4.68;;
12687;SDS011;6408;59.388;17.798;2023-04-12T10:44:53;6.38;;;4.78;;
12687;SDS011;6408;59.388;17.798;2023-04-12T10:50:28;8.57;;;5.00;;
12687;SDS011;6408;59.388;17.798;2023-04-12T10:56:37;6.57;;;5.55;;
12687;SDS011;6408;59.388;17.798;2023-04-12T10:59:05;7.70;;;4.82;;
12687;SDS011;6408;59.388;17.798;2023-04-12T11:01:34;6.05;;;4.85;;
12687;SDS011;6408;59.388;17.798;2023-04-12T11:04:09;10.30;;;5.85;;
12687;SDS011;6408;59.388;17.798;2023-04-12T11:06:41;6.60;;;4.65;;
12687;SDS011;6408;59.388;17.798;2023-04-12T11:09:26;5.35;;;4.80;;
12687;SDS011;6408;59.388;17.798;2023-04-12T11:12:09;5.65;;;5.10;;
12687;SDS011;6408;59.388;17.798;2023-04-12T11:14:42;7.53;;;4.47;;
12687;SDS011;6408;59.388;17.798;2023-04-12T11:17:20;7.10;;;4.47;;
12687;SDS011;6408;59.388;17.798;2023-04-12T11:19:50;6.13;;;4.65;;
12687;SDS011;6408;59.388;17.798;2023-04-12T11:22:20;6.25;;;4.82;;
12687;SDS011;6408;59.388;17.798;2023-04-12T11:24:49;5.78;;;4.65;;
12687;SDS011;6408;59.388;17.798;2023-04-12T11:27:20;7.18;;;4.93;;
12687;SDS011;6408;59.388;17.798;2023-04-12T11:29:49;7.20;;;4.45;;
12687;SDS011;6408;59.388;17.798;2023-04-12T11:32:19;6.55;;;5.18;;
12687;SDS011;6408;59.388;17.798;2023-04-12T11:34:47;5.57;;;4.60;;
12687;SDS011;6408;59.388;17.798;2023-04-12T11:37:16;5.25;;;4.55;;
12687;SDS011;6408;59.388;17.798;2023-04-12T11:39:45;7.13;;;4.80;;
12687;SDS011;6408;59.388;17.798;2023-04-12T11:42:13;5.25;;;4.55;;
12687;SDS011;6408;59.388;17.798;2023-04-12T11:44:44;5.82;;;4.63;;
12687;SDS011;6408;59.388;17.798;2023-04-12T11:47:13;4.80;;;4.40;;
12687;SDS011;6408;59.388;17.798;2023-04-12T11:49:45;5.63;;;4.85;;
12687;SDS011;6408;59.388;17.798;2023-04-12T11:52:14;6.45;;;4.60;;
12687;SDS011;6408;59.388;17.798;2023-04-12T11:54:42;9.15;;;4.55;;
12687;SDS011;6408;59.388;17.798;2023-04-12T11:57:11;7.85;;;4.80;;
12687;SDS011;6408;59.388;17.798;2023-04-12T11:59:42;6.28;;;4.80;;
12687;SDS011;6408;59.388;17.798;2023-04-12T12:02:12;6.63;;;4.70;;
12687;SDS011;6408;59.388;17.798;2023-04-12T12:04:41;6.00;;;4.90;;
12687;SDS011;6408;59.388;17.798;2023-04-12T12:07:11;6.97;;;5.35;;
12687;SDS011;6408;59.388;17.798;2023-04-12T12:09:40;7.13;;;4.80;;
12687;SDS011;6408;59.388;17.798;2023-04-12T12:12:09;6.72;;;5.13;;
12687;SDS011;6408;59.388;17.798;2023-04-12T12:14:37;5.75;;;4.85;;
12687;SDS011;6408;59.388;17.798;2023-04-12T12:19:49;7.78;;;4.90;;
12687;SDS011;6408;59.388;17.798;2023-04-12T12:22:18;7.00;;;4.53;;
12687;SDS011;6408;59.388;17.798;2023-04-12T12:24:49;9.52;;;5.05;;
12687;SDS011;6408;59.388;17.798;2023-04-12T12:27:18;6.80;;;5.30;;
12687;SDS011;6408;59.388;17.798;2023-04-12T12:29:48;6.85;;;4.82;;
12687;SDS011;6408;59.388;17.798;2023-04-12T12:32:17;5.88;;;4.55;;
12687;SDS011;6408;59.388;17.798;2023-04-12T12:37:35;6.70;;;5.10;;
12687;SDS011;6408;59.388;17.798;2023-04-12T12:40:05;12.82;;;5.57;;
12687;SDS011;6408;59.388;17.798;2023-04-12T12:42:36;6.47;;;4.97;;
12687;SDS011;6408;59.388;17.798;2023-04-12T12:45:11;8.20;;;4.63;;
12687;SDS011;6408;59.388;17.798;2023-04-12T12:47:49;10.40;;;5.47;;
12687;SDS011;6408;59.388;17.798;2023-04-12T12:50:21;6.47;;;5.07;;
12687;SDS011;6408;59.388;17.798;2023-04-12T12:52:50;6.38;;;5.25;;
12687;SDS011;6408;59.388;17.798;2023-04-12T12:55:18;7.07;;;4.50;;
12687;SDS011;6408;59.388;17.798;2023-04-12T12:57:47;6.95;;;4.68;;
12687;SDS011;6408;59.388;17.798;2023-04-12T13:00:17;6.97;;;4.85;;
12687;SDS011;6408;59.388;17.798;2023-04-12T13:02:46;6.75;;;4.95;;
12687;SDS011;6408;59.388;17.798;2023-04-12T13:05:15;7.40;;;4.90;;
12687;SDS011;6408;59.388;17.798;2023-04-12T13:07:44;6.00;;;5.20;;
12687;SDS011;6408;59.388;17.798;2023-04-12T13:10:12;5.30;;;4.60;;
12687;SDS011;6408;59.388;17.798;2023-04-12T13:12:40;6.22;;;5.03;;
12687;SDS011;6408;59.388;17.798;2023-04-12T13:15:08;11.75;;;4.80;;
12687;SDS011;6408;59.388;17.798;2023-04-12T13:17:38;5.45;;;4.60;;
12687;SDS011;6408;59.388;17.798;2023-04-12T13:20:05;5.50;;;4.90;;
12687;SDS011;6408;59.388;17.798;2023-04-12T13:22:33;6.32;;;4.70;;
12687;SDS011;6408;59.388;17.798;2023-04-12T13:25:03;5.68;;;5.00;;
12687;SDS011;6408;59.388;17.798;2023-04-12T13:27:31;5.65;;;4.50;;
12687;SDS011;6408;59.388;17.798;2023-04-12T13:29:59;6.50;;;5.05;;
12687;SDS011;6408;59.388;17.798;2023-04-12T13:32:26;5.22;;;4.57;;
12687;SDS011;6408;59.388;17.798;2023-04-12T13:34:54;6.18;;;4.93;;
12687;SDS011;6408;59.388;17.798;2023-04-12T13:37:22;5.63;;;4.78;;
12687;SDS011;6408;59.388;17.798;2023-04-12T13:39:50;6.35;;;4.93;;
12687;SDS011;6408;59.388;17.798;2023-04-12T13:42:19;16.08;;;6.15;;
12687;SDS011;6408;59.388;17.798;2023-04-12T13:44:48;6.78;;;5.32;;
12687;SDS011;6408;59.388;17.798;2023-04-12T13:47:16;10.38;;;5.03;;
12687;SDS011;6408;59.388;17.798;2023-04-12T13:49:44;6.78;;;5.40;;
12687;SDS011;6408;59.388;17.798;2023-04-12T13:52:12;8.48;;;4.85;;
12687;SDS011;6408;59.388;17.798;2023-04-12T13:54:40;8.30;;;5.15;;
12687;SDS011;6408;59.388;17.798;2023-04-12T13:57:07;6.43;;;5.40;;
12687;SDS011;6408;59.388;17.798;2023-04-12T14:02:25;10.80;;;5.20;;
12687;SDS011;6408;59.388;17.798;2023-04-12T14:08:27;6.70;;;5.15;;
12687;SDS011;6408;59.388;17.798;2023-04-12T14:10:55;7.75;;;5.32;;
12687;SDS011;6408;59.388;17.798;2023-04-12T14:16:43;7.47;;;5.30;;
12687;SDS011;6408;59.388;17.798;2023-04-12T14:19:55;11.38;;;5.57;;
12687;SDS011;6408;59.388;17.798;2023-04-12T14:26:18;6.80;;;5.35;;
12687;SDS011;6408;59.388;17.798;2023-04-12T14:28:46;13.98;;;5.45;;
12687;SDS011;6408;59.388;17.798;2023-04-12T14:31:14;5.72;;;5.05;;
12687;SDS011;6408;59.388;17.798;2023-04-12T14:33:44;8.35;;;5.65;;
12687;SDS011;6408;59.388;17.798;2023-04-12T14:36:13;6.28;;;5.10;;
12687;SDS011;6408;59.388;17.798;2023-04-12T14:38:42;9.07;;;5.80;;
12687;SDS011;6408;59.388;17.798;2023-04-12T14:41:10;6.72;;;5.55;;
12687;SDS011;6408;59.388;17.798;2023-04-12T14:43:38;11.50;;;5.90;;
12687;SDS011;6408;59.388;17.798;2023-04-12T14:46:08;7.30;;;6.07;;
12687;SDS011;6408;59.388;17.798;2023-04-12T14:56:03;8.68;;;6.25;;
12687;SDS011;6408;59.388;17.798;2023-04-12T14:58:38;8.77;;;6.00;;
12687;SDS011;6408;59.388;17.798;2023-04-12T15:01:29;10.48;;;7.15;;
12687;SDS011;6408;59.388;17.798;2023-04-12T15:04:14;10.15;;;6.80;;
12687;SDS011;6408;59.388;17.798;2023-04-12T15:06:42;9.30;;;6.57;;
12687;SDS011;6408;59.388;17.798;2023-04-12T15:12:44;8.40;;;6.95;;
12687;SDS011;6408;59.388;17.798;2023-04-12T15:16:02;8.27;;;7.00;;
12687;SDS011;6408;59.388;17.798;2023-04-12T15:19:38;10.25;;;6.88;;
12687;SDS011;6408;59.388;17.798;2023-04-12T15:22:15;7.82;;;7.03;;
12687;SDS011;6408;59.388;17.798;2023-04-12T15:24:42;9.65;;;6.53;;
12687;SDS011;6408;59.388;17.798;2023-04-12T15:27:09;10.25;;;7.38;;
12687;SDS011;6408;59.388;17.798;2023-04-12T15:39:02;11.43;;;7.63;;
12687;SDS011;6408;59.388;17.798;2023-04-12T15:41:32;11.13;;;6.80;;
12687;SDS011;6408;59.388;17.798;2023-04-12T15:44:02;10.00;;;7.05;;
12687;SDS011;6408;59.388;17.798;2023-04-12T15:46:30;8.80;;;7.22;;
12687;SDS011;6408;59.388;17.798;2023-04-12T15:48:59;12.40;;;7.38;;
12687;SDS011;6408;59.388;17.798;2023-04-12T15:52:00;11.40;;;7.40;;